Tropical Cyclones
[Index]
Main Index Home Page Stock Weather Photos Extreme Storms Discussion Storm News and Storm Chasing Reports Tropical Cyclones / Hurricanes / Typhoons Weather Data and Links Wild Fires / Bushfires Weather Observation Techniques Weather Picture Catalogue Tornado Pictures and Reports Stock Video Footage and DVDs for sale
Season 1982-1983 Tropical Cyclone JANE Track Map
Season 1982-1983 Summaries: [BoM-AU] [JTWC-AU] [JTWC-SIO] [JTWC-SPAC] [JTWC-SH]
<<- Previous TC | BoM 1982-1983 Season | Next TC ->>

click for intensity scale information  Lat/long Grid: Show Hide

 Date Labels: Show Hide

Bureau of Meteorology Tropical Cyclone Data

Name: JANE
Number: 636 / 198283_01

02 Jan 1983 00:00 UTC to 10 Jan 1983 18:00 UTC

    date/time    lat    long    hPa   cat  kts
1983-01-02 00   10.8   111.5   1003                     
1983-01-02 06   11.4   112.6   1000                     
1983-01-02 12   12.0   114.1    994    1                
1983-01-02 18   12.5   114.9    992    1                
1983-01-03 00   13.2   115.0    990    1                
1983-01-03 06   13.4   115.1    987    1                
1983-01-03 12   13.7   115.1    984    2                
1983-01-03 18   14.1   115.2    982    2                
1983-01-04 00   14.5   115.4    979    2                
1983-01-04 06   14.8   115.4    977    2                
1983-01-04 12   15.0   115.1    975    2                
1983-01-04 18   14.8   114.9    970    3                
1983-01-05 00   14.5   115.0    972    2                
1983-01-05 06   14.4   115.5    974    2                
1983-01-05 12   14.0   116.0    976    2                
1983-01-05 18   13.7   116.9    978    2                
1983-01-06 00   13.5   117.7    980    2                
1983-01-06 06   13.7   118.7    980    2                
1983-01-06 12   14.7   118.9    980    2                
1983-01-06 18   15.0   119.0    978    2                
1983-01-07 00   15.3   118.9    974    2                
1983-01-07 06   16.2   118.5    972    2                
1983-01-07 12   16.8   118.1    970    3                
1983-01-07 18   17.2   118.2    968    3                
1983-01-08 00   17.3   118.2    967    3                
1983-01-08 03   17.5   118.3    966    3                
1983-01-08 06   17.7   118.4    965    3                
1983-01-08 09   17.9   118.5    963    3                
1983-01-08 12   18.0   118.6    960    3                
1983-01-08 15   18.1   118.5    958    3                
1983-01-08 18   18.4   118.5    956    3                
1983-01-08 21   18.7   118.6    953    4                
1983-01-09 00   19.0   119.0    950    4                
1983-01-09 03   19.4   119.2    948    4                
1983-01-09 06   19.9   119.6    947    4                
1983-01-09 09   20.1   119.8    947    4                
1983-01-09 12   20.4   120.1    952    4                
1983-01-09 15   20.7   120.6    954    4                
1983-01-09 18   21.2   121.1    958    3                
1983-01-09 21   21.7   121.7    962    3                
1983-01-10 00   22.3   122.5    966    3                
1983-01-10 03   22.8   123.1    970    3                
1983-01-10 06   23.2   123.6    974    2                
1983-01-10 09   23.6   124.3    980    2                
1983-01-10 12   24.0   125.5    985    2                
1983-01-10 15   23.7   127.5    990    1                
1983-01-10 18   23.5   129.0    992    1                
Winds are 10-min average.

Tropical cyclone tracks developed by Michael Bath using data from the Bureau of Meteorology and Google Maps.


[Australian Severe Weather index] [Copyright Notice] [Email Contacts] [Search This Site] [Privacy Policy]
Document: tropical_cyclone_jane.htm Updated: 30 May 2013